createdAt,value
2019-05-03T00:02:03.159Z,-21337.53
2019-05-03T00:04:31.668Z,-21349.23
2019-05-03T00:06:59.967Z,-21348.11
2019-05-03T00:09:28.251Z,-21335.27
2019-05-03T00:11:56.542Z,-21345.14
2019-05-03T00:14:25.460Z,-21347.83
2019-05-03T00:16:53.728Z,-21354.87
2019-05-03T00:19:22.054Z,-21354.45
2019-05-03T00:21:50.238Z,-21359.24
2019-05-03T00:24:18.536Z,-21352.20
2019-05-03T00:26:46.886Z,-21344.15
2019-05-03T00:29:15.134Z,-21363.61
2019-05-03T00:31:43.394Z,-21358.25
2019-05-03T00:34:13.295Z,-21365.86
2019-05-03T00:36:43.192Z,-21350.36
2019-05-03T00:39:13.114Z,-21358.54
2019-05-03T00:41:42.577Z,-21365.30
2019-05-03T00:44:11.577Z,-21361.63
2019-05-03T00:46:39.846Z,-21361.49
2019-05-03T00:49:08.133Z,-21355.44
2019-05-03T00:51:36.402Z,-21353.46
2019-05-03T00:54:04.746Z,-21352.05
2019-05-03T00:56:33.135Z,-21361.07
2019-05-03T00:59:02.229Z,-21351.49
2019-05-03T01:01:32.066Z,-21368.39
2019-05-03T01:04:01.835Z,-21353.74
2019-05-03T01:06:31.835Z,-21353.46
2019-05-03T01:09:02.648Z,-21339.93
2019-05-03T01:11:32.409Z,-21357.55
2019-05-03T01:14:02.268Z,-21354.17
2019-05-03T01:16:31.845Z,-21349.80
2019-05-03T01:19:00.355Z,-21358.25
2019-05-03T01:21:28.626Z,-21353.32
2019-05-03T01:23:56.884Z,-21350.22
2019-05-03T01:26:25.152Z,-21352.20
2019-05-03T01:28:53.455Z,-21351.77
2019-05-03T01:31:22.868Z,-21364.59
2019-05-03T01:33:51.755Z,-21365.30
2019-05-03T01:36:20.266Z,-21356.84
2019-05-03T01:38:48.575Z,-21355.71
2019-05-03T01:41:16.839Z,-21366.98
2019-05-03T01:43:45.122Z,-21346.98
2019-05-03T01:46:13.385Z,-21355.44
2019-05-03T01:48:52.111Z,-21335.27
2019-05-03T01:51:22.031Z,-21345.43
2019-05-03T01:53:52.325Z,-21342.46
2019-05-03T01:56:22.316Z,-21334.71
2019-05-03T01:58:52.265Z,-21330.48
2019-05-03T02:01:34.305Z,-21340.21
2019-05-03T02:04:16.228Z,-21327.38
2019-05-03T02:06:44.508Z,-21337.95
2019-05-03T02:09:12.769Z,-21330.34
2019-05-03T02:11:42.103Z,-21315.94
2019-05-03T02:14:12.223Z,-21312.13
2019-05-03T02:16:42.038Z,-21313.96
2019-05-03T02:19:12.500Z,-21298.43
2019-05-03T02:21:41.688Z,-21302.67
2019-05-03T02:24:11.753Z,-21312.69
2019-05-03T02:26:39.981Z,-21295.04
2019-05-03T02:29:08.257Z,-21301.26
2019-05-03T02:31:37.508Z,-21315.09
2019-05-03T02:34:05.766Z,-21300.13
2019-05-03T02:36:34.088Z,-21302.95
2019-05-03T02:39:03.027Z,-21295.04
2019-05-03T02:41:31.351Z,-21305.78
2019-05-03T02:44:00.738Z,-21303.94
2019-05-03T02:46:35.852Z,-21301.40
2019-05-03T02:49:06.395Z,-21292.36
2019-05-03T02:51:36.028Z,-21304.79
2019-05-03T02:54:05.599Z,-21310.43
2019-05-03T02:56:35.706Z,-21297.30
2019-05-03T02:59:06.188Z,-21311.56
2019-05-03T03:01:35.939Z,-21300.41
2019-05-03T03:04:05.835Z,-21308.46
2019-05-03T03:06:36.649Z,-21302.95
2019-05-03T03:09:06.212Z,-21299.14
2019-05-03T03:11:37.294Z,-21305.21
2019-05-03T03:14:06.108Z,-21302.67
2019-05-03T03:16:36.110Z,-21296.03
2019-05-03T03:19:06.720Z,-21305.78
2019-05-03T03:21:37.886Z,-21289.67
2019-05-03T03:24:11.617Z,-21292.07
2019-05-03T03:26:43.125Z,-21292.64
2019-05-03T03:29:12.681Z,-21296.60
2019-05-03T03:31:58.065Z,-21299.28
2019-05-03T03:34:29.082Z,-21305.35
2019-05-03T03:37:04.463Z,-21293.77
2019-05-03T03:39:27.533Z,-21296.31
2019-05-03T03:41:56.256Z,-21302.39
2019-05-03T03:44:25.693Z,-21304.36
2019-05-03T03:46:57.409Z,-21301.26
2019-05-03T03:49:28.576Z,-21300.55
2019-05-03T03:51:58.162Z,-21294.33
2019-05-03T03:54:26.434Z,-21282.88
2019-05-03T03:57:03.376Z,-21299.28
2019-05-03T03:59:26.970Z,-21295.75
2019-05-03T04:01:55.519Z,-21292.50
2019-05-03T04:04:25.990Z,-21296.03
2019-05-03T04:06:58.489Z,-21304.93
2019-05-03T04:09:25.533Z,-21310.43
2019-05-03T04:11:56.629Z,-21307.19
2019-05-03T04:14:26.023Z,-21314.25
2019-05-03T04:16:56.357Z,-21306.20
2019-05-03T04:19:36.345Z,-21305.49
2019-05-03T04:22:05.898Z,-21318.63
2019-05-03T04:24:35.274Z,-21295.75
2019-05-03T04:27:18.005Z,-21292.64
2019-05-03T04:29:37.811Z,-21303.80
2019-05-03T04:32:08.013Z,-21311.71
2019-05-03T04:34:36.691Z,-21303.09
2019-05-03T04:37:05.671Z,-21294.19
2019-05-03T04:39:35.971Z,-21286.70
2019-05-03T04:42:06.776Z,-21291.65
2019-05-03T04:44:35.750Z,-21307.61
2019-05-03T04:47:06.910Z,-21288.96
2019-05-03T04:49:36.243Z,-21301.40
2019-05-03T04:52:05.792Z,-21298.71
2019-05-03T04:54:36.085Z,-21300.13
2019-05-03T04:57:06.547Z,-21286.42
2019-05-03T04:59:35.874Z,-21297.45
2019-05-03T05:02:06.128Z,-21301.26
2019-05-03T05:04:35.695Z,-21294.33
2019-05-03T05:07:06.254Z,-21295.32
2019-05-03T05:09:35.102Z,-21304.36
2019-05-03T05:12:05.751Z,-21310.15
2019-05-03T05:14:35.286Z,-21290.10
2019-05-03T05:17:06.073Z,-21287.69
2019-05-03T05:19:41.453Z,-21309.02
2019-05-03T05:22:12.282Z,-21299.00
2019-05-03T05:24:40.556Z,-21314.39
2019-05-03T05:27:25.754Z,-21294.19
2019-05-03T05:29:55.416Z,-21286.28
2019-05-03T05:32:24.770Z,-21288.68
2019-05-03T05:34:54.938Z,-21289.67
2019-05-03T05:37:24.995Z,-21279.77
2019-05-03T05:39:55.079Z,-21291.37
2019-05-03T05:42:25.094Z,-21285.71
2019-05-03T05:44:55.539Z,-21296.03
2019-05-03T05:47:40.144Z,-21301.54
2019-05-03T05:50:10.210Z,-21315.94
2019-05-03T05:52:38.509Z,-21304.65
2019-05-03T05:55:11.765Z,-21325.68
2019-05-03T05:57:47.694Z,-21331.46
2019-05-03T06:00:17.753Z,-21306.77
2019-05-03T06:02:46.018Z,-21314.39
2019-05-03T06:05:14.822Z,-21319.48
2019-05-03T06:08:01.003Z,-21335.70
2019-05-03T06:10:34.801Z,-21304.93
2019-05-03T06:13:11.470Z,-21288.54
2019-05-03T06:15:57.844Z,-21311.29
2019-05-03T06:18:31.470Z,-21293.49
2019-05-03T06:21:01.519Z,-21302.11
2019-05-03T06:23:31.426Z,-21303.38
2019-05-03T06:26:00.176Z,-21308.88
2019-05-03T06:28:35.217Z,-21310.57
2019-05-03T06:31:19.306Z,-21326.39
2019-05-03T06:33:46.806Z,-21323.43
2019-05-03T06:36:15.352Z,-21317.64
2019-05-03T06:38:44.715Z,-21325.26
2019-05-03T06:41:14.863Z,-21313.82
2019-05-03T06:43:47.327Z,-21315.94
2019-05-03T06:46:16.341Z,-21320.32
2019-05-03T06:48:44.419Z,-21332.88
2019-05-03T06:51:17.877Z,-21333.16
2019-05-03T06:53:49.066Z,-21334.00
2019-05-03T06:56:14.739Z,-21347.26
2019-05-03T06:58:49.857Z,-21321.88
2019-05-03T07:01:21.583Z,-21344.02
2019-05-03T07:04:08.587Z,-21346.13
2019-05-03T07:06:41.028Z,-21344.44
2019-05-03T07:09:11.106Z,-21338.52
2019-05-03T07:11:39.360Z,-21330.48
2019-05-03T07:14:07.649Z,-21336.40
2019-05-03T07:16:35.913Z,-21324.27
2019-05-03T07:19:04.530Z,-21315.94
2019-05-03T07:21:35.420Z,-21321.30
2019-05-03T07:24:05.394Z,-21322.29
2019-05-03T07:26:34.367Z,-21329.77
2019-05-03T07:29:04.813Z,-21317.92
2019-05-03T07:31:32.743Z,-21336.82
2019-05-03T07:34:01.084Z,-21335.41
2019-05-03T07:36:29.430Z,-21325.40
2019-05-03T07:38:57.707Z,-21317.36
2019-05-03T07:41:28.049Z,-21343.31
2019-05-03T07:43:56.312Z,-21349.38
2019-05-03T07:46:25.630Z,-21364.73
2019-05-03T07:48:54.827Z,-21372.34
2019-05-03T07:51:24.886Z,-21358.39
2019-05-03T07:53:55.382Z,-21369.24
2019-05-03T07:56:25.481Z,-21353.18
2019-05-03T07:59:02.841Z,-21344.30
2019-05-03T08:01:26.330Z,-21361.35
2019-05-03T08:03:55.177Z,-21365.01
2019-05-03T08:06:24.677Z,-21350.36
2019-05-03T08:08:54.529Z,-21346.56
2019-05-03T08:11:24.740Z,-21345.86
2019-05-03T08:13:54.903Z,-21340.77
2019-05-03T08:16:25.090Z,-21341.05
2019-05-03T08:18:55.606Z,-21326.95
2019-05-03T08:21:25.234Z,-21322.58
2019-05-03T08:23:55.601Z,-21341.34
2019-05-03T08:26:25.691Z,-21325.68
2019-05-03T08:28:54.548Z,-21339.36
2019-05-03T08:31:27.155Z,-21335.27
2019-05-03T08:33:57.138Z,-21339.50
2019-05-03T08:36:25.388Z,-21340.77
2019-05-03T08:38:56.096Z,-21338.37
2019-05-03T08:41:25.664Z,-21356.70
2019-05-03T08:43:54.983Z,-21351.07
2019-05-03T08:46:25.316Z,-21365.43
2019-05-03T08:48:54.807Z,-21344.15
2019-05-03T08:51:24.980Z,-21351.77
2019-05-03T08:53:55.970Z,-21329.35
2019-05-03T08:56:24.711Z,-21355.44
2019-05-03T08:58:52.988Z,-21367.83
2019-05-03T09:01:22.303Z,-21359.10
2019-05-03T09:03:50.570Z,-21348.81
2019-05-03T09:06:18.843Z,-21352.90
2019-05-03T09:08:47.117Z,-21355.29
2019-05-03T09:11:17.053Z,-21360.65
2019-05-03T09:13:46.971Z,-21382.75
2019-05-03T09:16:15.326Z,-21373.18
2019-05-03T09:18:45.424Z,-21370.79
2019-05-03T09:21:14.795Z,-21354.30
2019-05-03T09:23:45.079Z,-21382.75
2019-05-03T09:26:15.131Z,-21393.02
2019-05-03T09:28:45.237Z,-21389.51
2019-05-03T09:31:14.876Z,-21413.84
2019-05-03T09:33:45.134Z,-21403.16
2019-05-03T09:36:14.724Z,-21391.76
2019-05-03T09:38:45.536Z,-21403.29
2019-05-03T09:41:15.095Z,-21392.18
2019-05-03T09:43:45.037Z,-21394.71
2019-05-03T09:46:14.548Z,-21394.85
2019-05-03T09:48:45.118Z,-21383.04
2019-05-03T09:51:14.765Z,-21399.64
2019-05-03T09:53:55.483Z,-21383.32
2019-05-03T09:56:53.445Z,-21397.67
2019-05-03T09:59:11.438Z,-21394.71
2019-05-03T10:01:39.695Z,-21404.42
2019-05-03T10:04:07.963Z,-21386.41
2019-05-03T10:06:36.258Z,-21416.78
2019-05-03T10:09:05.924Z,-21387.54
2019-05-03T10:11:35.123Z,-21394.15
2019-05-03T10:14:04.672Z,-21401.46
2019-05-03T10:16:35.147Z,-21403.86
2019-05-03T10:19:03.441Z,-21381.63
2019-05-03T10:21:35.451Z,-21409.48
2019-05-03T10:24:05.573Z,-21406.95
2019-05-03T10:26:35.468Z,-21430.83
2019-05-03T10:29:05.482Z,-21394.85
2019-05-03T10:31:38.437Z,-21406.10
2019-05-03T10:34:07.780Z,-21382.19
2019-05-03T10:36:38.127Z,-21372.06
2019-05-03T10:39:06.400Z,-21420.71
2019-05-03T10:41:34.938Z,-21431.95
2019-05-03T10:44:03.281Z,-21426.20
2019-05-03T10:46:34.553Z,-21428.30
2019-05-03T10:49:02.863Z,-21439.39
2019-05-03T10:51:32.832Z,-21466.18
2019-05-03T10:54:01.171Z,-21461.83
2019-05-03T10:56:31.084Z,-21439.25
2019-05-03T10:59:01.018Z,-21422.97
2019-05-03T11:01:47.209Z,-21399.78
2019-05-03T11:04:16.479Z,-21425.77
2019-05-03T11:06:45.798Z,-21440.38
2019-05-03T11:09:15.271Z,-21416.22
2019-05-03T11:11:45.275Z,-21430.97
2019-05-03T11:14:15.862Z,-21446.97
2019-05-03T11:16:46.055Z,-21418.19
2019-05-03T11:19:14.659Z,-21402.45
2019-05-03T11:21:45.329Z,-21395.84
2019-05-03T11:24:14.730Z,-21396.40
2019-05-03T11:26:45.391Z,-21399.50
2019-05-03T11:29:15.837Z,-21389.51
2019-05-03T11:34:44.958Z,-21389.79
2019-05-03T11:37:30.656Z,-21385.29
2019-05-03T11:39:58.922Z,-21384.16
2019-05-03T11:42:27.181Z,-21398.09
2019-05-03T11:44:55.473Z,-21432.23
2019-05-03T11:47:25.585Z,-21441.78
2019-05-03T11:49:54.835Z,-21448.09
2019-05-03T11:52:29.844Z,-21451.74
2019-05-03T11:54:59.163Z,-21461.13
2019-05-03T11:57:28.145Z,-21444.31
2019-05-03T11:59:58.383Z,-21446.70
2019-05-03T12:02:31.489Z,-21426.20
2019-05-03T12:05:20.520Z,-21420.02
2019-05-03T12:07:48.805Z,-21429.85
2019-05-03T12:10:32.472Z,-21426.20
2019-05-03T12:12:49.378Z,-21426.06
2019-05-03T12:15:17.863Z,-21421.43
2019-05-03T12:17:54.373Z,-21424.65
2019-05-03T12:20:20.727Z,-21426.76
2019-05-03T12:22:49.912Z,-21446.55
2019-05-03T12:25:19.569Z,-21450.34
2019-05-03T12:27:50.485Z,-21439.11
2019-05-03T12:30:27.430Z,-21455.11
2019-05-03T12:32:54.693Z,-21483.27
2019-05-03T12:35:24.646Z,-21424.09
2019-05-03T12:37:55.360Z,-21427.32
2019-05-03T12:40:23.130Z,-21459.31
2019-05-03T12:42:55.231Z,-21464.78
2019-05-03T12:45:24.773Z,-21522.87
2019-05-03T12:47:55.676Z,-21543.13
2019-05-03T12:50:25.210Z,-21541.31
2019-05-03T12:52:55.411Z,-21544.80
2019-05-03T12:55:24.757Z,-21620.04
2019-05-03T12:57:55.361Z,-21660.87
2019-05-03T13:00:31.863Z,-21678.07
2019-05-03T13:03:04.659Z,-21637.69
2019-05-03T13:05:32.943Z,-21643.80
2019-05-03T13:08:22.154Z,-21573.12
2019-05-03T13:10:50.479Z,-21489.58
2019-05-03T13:13:18.791Z,-21499.80
2019-05-03T13:15:47.138Z,-21481.60
2019-05-03T13:18:15.749Z,-21487.48
2019-05-03T13:20:45.347Z,-21506.65
2019-05-03T13:23:13.869Z,-21485.38
2019-05-03T13:25:44.739Z,-21458.75
2019-05-03T13:28:15.344Z,-21425.07
2019-05-03T13:30:56.212Z,-21445.85
2019-05-03T13:33:29.170Z,-21488.04
2019-05-03T13:35:57.542Z,-21547.03
2019-05-03T13:38:45.371Z,-21613.64
2019-05-03T13:41:15.627Z,-21618.78
2019-05-03T13:43:45.473Z,-21574.37
2019-05-03T13:46:15.677Z,-21555.41
2019-05-03T13:48:49.080Z,-21526.36
2019-05-03T13:51:16.287Z,-21522.03
2019-05-03T13:53:50.287Z,-21467.59
2019-05-03T13:56:19.594Z,-21480.47
2019-05-03T13:58:47.862Z,-21465.06
2019-05-03T14:01:16.194Z,-21434.90
2019-05-03T14:03:45.253Z,-21432.09
2019-05-03T14:06:20.024Z,-21430.27
2019-05-03T14:09:02.373Z,-21445.15
2019-05-03T14:11:32.404Z,-21464.50
2019-05-03T14:14:00.678Z,-21478.51
2019-05-03T14:16:29.960Z,-21558.89
2019-05-03T14:18:59.914Z,-21553.18
2019-05-03T14:21:30.816Z,-21594.44
2019-05-03T14:24:15.775Z,-21647.96
2019-05-03T14:26:44.918Z,-21585.95
2019-05-03T14:29:14.930Z,-21502.59
2019-05-03T14:31:45.471Z,-21487.34
2019-05-03T14:34:16.953Z,-21554.57
2019-05-03T14:36:44.965Z,-21504.41
2019-05-03T14:39:15.061Z,-21513.64
2019-05-03T14:41:46.536Z,-21488.32
2019-05-03T14:44:15.584Z,-21525.24
2019-05-03T14:46:45.674Z,-21519.37
2019-05-03T14:49:14.817Z,-21531.68
2019-05-03T14:51:45.681Z,-21568.10
2019-05-03T14:54:14.569Z,-21595.82
2019-05-03T14:56:50.926Z,-21542.43
2019-05-03T14:59:20.850Z,-21492.52
2019-05-03T15:01:50.779Z,-21471.51
2019-05-03T15:04:19.056Z,-21592.35
2019-05-03T15:06:47.338Z,-21620.73
2019-05-03T15:09:18.611Z,-21530.41
2019-05-03T15:11:45.612Z,-21493.50
2019-05-03T15:14:14.569Z,-21469.69
2019-05-03T15:16:44.904Z,-21542.98
2019-05-03T15:19:14.819Z,-21521.05
2019-05-03T15:21:45.154Z,-21501.89
2019-05-03T15:24:14.564Z,-21486.36
2019-05-03T15:26:44.745Z,-21491.96
2019-05-03T15:29:15.426Z,-21497.00
2019-05-03T15:31:44.740Z,-21481.88
2019-05-03T15:34:15.096Z,-21462.54
2019-05-03T15:36:45.032Z,-21451.88
2019-05-03T15:39:15.251Z,-21454.41
2019-05-03T15:41:45.475Z,-21465.48
2019-05-03T15:44:18.179Z,-21455.11
2019-05-03T15:46:48.086Z,-21460.71
2019-05-03T15:49:25.461Z,-21456.23
2019-05-03T15:51:53.916Z,-21452.02
2019-05-03T15:54:24.548Z,-21459.88
2019-05-03T15:56:54.260Z,-21536.14
2019-05-03T15:59:24.424Z,-21595.82
2019-05-03T16:01:56.808Z,-21468.15
2019-05-03T16:04:26.252Z,-21473.61
2019-05-03T16:06:55.439Z,-21473.75
2019-05-03T16:09:24.591Z,-21473.05
2019-05-03T16:11:52.984Z,-21440.51
2019-05-03T16:14:24.547Z,-21447.25
2019-05-03T16:16:54.637Z,-21450.48
2019-05-03T16:19:24.295Z,-21441.78
2019-05-03T16:21:54.384Z,-21471.09
2019-05-03T16:24:24.999Z,-21455.81
2019-05-03T16:27:06.961Z,-21443.46
2019-05-03T16:29:36.281Z,-21454.41
2019-05-03T16:32:05.190Z,-21447.95
2019-05-03T16:34:35.014Z,-21434.48
2019-05-03T16:37:04.368Z,-21433.92
2019-05-03T16:39:32.712Z,-21457.07
2019-05-03T16:42:00.979Z,-21458.33
2019-05-03T16:44:29.279Z,-21456.65
2019-05-03T16:46:57.543Z,-21436.44
2019-05-03T16:49:25.810Z,-21442.05
2019-05-03T16:51:54.888Z,-21444.17
2019-05-03T16:54:25.288Z,-21453.56
2019-05-03T16:56:54.929Z,-21436.16
2019-05-03T16:59:24.792Z,-21433.50
2019-05-03T17:01:55.090Z,-21453.56
2019-05-03T17:04:36.759Z,-21443.74
2019-05-03T17:07:09.281Z,-21446.55
2019-05-03T17:09:55.270Z,-21439.39
2019-05-03T17:12:25.697Z,-21423.67
2019-05-03T17:14:54.351Z,-21427.32
2019-05-03T17:17:25.234Z,-21410.04
2019-05-03T17:19:55.095Z,-21427.32
2019-05-03T17:22:25.203Z,-21431.11
2019-05-03T17:24:53.554Z,-21422.55
2019-05-03T17:27:21.841Z,-21411.87
2019-05-03T17:29:50.208Z,-21395.41
2019-05-03T17:32:18.476Z,-21423.95
2019-05-03T17:34:46.755Z,-21423.39
2019-05-03T17:37:15.041Z,-21425.35
2019-05-03T17:39:45.498Z,-21422.12
2019-05-03T17:42:27.494Z,-21416.78
2019-05-03T17:44:55.766Z,-21413.41
2019-05-03T17:47:25.593Z,-21432.09
2019-05-03T17:49:54.680Z,-21404.98
2019-05-03T17:52:42.525Z,-21409.34
2019-05-03T17:55:29.533Z,-21402.31
2019-05-03T17:58:01.921Z,-21390.49
2019-05-03T18:00:36.000Z,-21384.72
2019-05-03T18:03:09.905Z,-21391.05
2019-05-03T18:05:54.864Z,-21402.59
2019-05-03T18:08:30.531Z,-21400.20
2019-05-03T18:11:00.459Z,-21409.48
2019-05-03T18:13:28.848Z,-21394.01
2019-05-03T18:15:57.129Z,-21399.92
2019-05-03T18:18:25.489Z,-21397.95
2019-05-03T18:20:55.489Z,-21412.99
2019-05-03T18:23:24.636Z,-21410.46
2019-05-03T18:25:54.846Z,-21414.54
2019-05-03T18:28:24.979Z,-21401.89
2019-05-03T18:30:54.701Z,-21412.14
2019-05-03T18:33:24.730Z,-21390.49
2019-05-03T18:35:54.643Z,-21407.79
2019-05-03T18:38:25.284Z,-21407.79
2019-05-03T18:40:55.298Z,-21398.66
2019-05-03T18:43:28.021Z,-21409.34
2019-05-03T18:45:58.058Z,-21406.39
2019-05-03T18:48:26.707Z,-21389.36
2019-05-03T18:50:55.016Z,-21382.05
2019-05-03T18:53:25.056Z,-21393.16
2019-05-03T18:55:55.198Z,-21396.68
2019-05-03T18:58:24.392Z,-21393.73
2019-05-03T19:00:54.754Z,-21403.29
2019-05-03T19:03:25.009Z,-21400.48
2019-05-03T19:05:55.524Z,-21386.69
2019-05-03T19:08:26.437Z,-21388.10
2019-05-03T19:10:58.755Z,-21388.10
2019-05-03T19:13:31.717Z,-21396.54
2019-05-03T19:16:01.802Z,-21393.73
2019-05-03T19:18:31.720Z,-21389.23
2019-05-03T19:21:00.002Z,-21389.51
2019-05-03T19:23:28.268Z,-21386.13
2019-05-03T19:25:56.616Z,-21389.36
2019-05-03T19:28:26.819Z,-21376.00
2019-05-03T19:30:55.209Z,-21375.58
2019-05-03T19:33:24.592Z,-21385.29
2019-05-03T19:35:54.897Z,-21376.28
2019-05-03T19:38:24.588Z,-21371.35
2019-05-03T19:40:54.698Z,-21374.59
2019-05-03T19:43:24.394Z,-21375.30
2019-05-03T19:45:53.138Z,-21380.78
2019-05-03T19:48:21.441Z,-21365.16
2019-05-03T19:50:49.720Z,-21363.89
2019-05-03T19:53:19.642Z,-21368.39
2019-05-03T19:55:50.800Z,-21370.08
2019-05-03T19:58:19.422Z,-21375.71
2019-05-03T20:00:58.273Z,-21376.42
2019-05-03T20:03:37.051Z,-21373.89
2019-05-03T20:06:07.008Z,-21364.17
2019-05-03T20:08:37.038Z,-21367.97
2019-05-03T20:11:15.329Z,-21383.32
2019-05-03T20:13:45.808Z,-21361.35
2019-05-03T20:16:15.772Z,-21370.64
2019-05-03T20:18:45.395Z,-21375.15
2019-05-03T20:21:14.906Z,-21381.21
2019-05-03T20:23:46.710Z,-21371.92
2019-05-03T20:26:14.996Z,-21372.62
2019-05-03T20:28:44.911Z,-21369.09
2019-05-03T20:31:13.675Z,-21371.21
2019-05-03T20:33:42.028Z,-21373.18
2019-05-03T20:36:10.306Z,-21361.77
2019-05-03T20:38:38.610Z,-21368.68
2019-05-03T20:41:07.044Z,-21344.72
2019-05-03T20:43:36.972Z,-21341.20
2019-05-03T20:46:10.700Z,-21356.00
2019-05-03T20:48:40.020Z,-21346.70
2019-05-03T20:51:08.302Z,-21345.14
2019-05-03T20:53:36.599Z,-21335.70
2019-05-03T20:56:05.300Z,-21335.84
2019-05-03T20:58:35.663Z,-21339.08
2019-05-03T21:01:05.006Z,-21348.11
2019-05-03T21:03:33.328Z,-21340.07
2019-05-03T21:06:02.505Z,-21339.08
2019-05-03T21:08:31.354Z,-21320.46
2019-05-03T21:10:59.634Z,-21320.74
2019-05-03T21:13:39.190Z,-21340.91
2019-05-03T21:16:08.521Z,-21329.91
2019-05-03T21:18:50.214Z,-21335.70
2019-05-03T21:21:20.128Z,-21331.46
2019-05-03T21:24:01.980Z,-21328.36
2019-05-03T21:26:30.244Z,-21335.13
2019-05-03T21:28:58.494Z,-21328.36
2019-05-03T21:31:26.782Z,-21313.54
2019-05-03T21:33:55.315Z,-21335.55
2019-05-03T21:36:29.683Z,-21354.45
2019-05-03T21:39:05.321Z,-21338.94
2019-05-03T21:41:35.209Z,-21346.13
2019-05-03T21:44:04.922Z,-21354.03
2019-05-03T21:46:37.591Z,-21354.03
2019-05-03T21:49:19.425Z,-21349.52
2019-05-03T21:51:47.797Z,-21355.44
2019-05-03T21:54:16.072Z,-21346.84
2019-05-03T21:56:44.780Z,-21340.21
2019-05-03T21:59:14.059Z,-21333.86
2019-05-03T22:01:45.415Z,-21336.69
2019-05-03T22:04:15.624Z,-21349.66
2019-05-03T22:06:44.475Z,-21355.15
2019-05-03T22:09:12.798Z,-21357.83
2019-05-03T22:11:41.060Z,-21354.59
2019-05-03T22:14:10.967Z,-21340.07
2019-05-03T22:16:40.890Z,-21340.91
2019-05-03T22:19:09.143Z,-21323.71
2019-05-03T22:21:50.855Z,-21308.04
2019-05-03T22:24:26.709Z,-21321.88
2019-05-03T22:26:59.788Z,-21317.50
2019-05-03T22:29:28.042Z,-21311.99
2019-05-03T22:31:56.347Z,-21312.84
2019-05-03T22:34:25.676Z,-21322.86
2019-05-03T22:36:54.846Z,-21319.75
2019-05-03T22:39:24.977Z,-21315.94
2019-05-03T22:41:53.374Z,-21321.45
2019-05-03T22:44:21.700Z,-21327.23
2019-05-03T22:46:50.059Z,-21332.03
2019-05-03T22:49:18.314Z,-21325.54
2019-05-03T22:51:46.614Z,-21329.77
2019-05-03T22:54:15.373Z,-21324.27
2019-05-03T22:56:44.732Z,-21319.75
2019-05-03T22:59:14.923Z,-21336.54
2019-05-03T23:01:45.525Z,-21321.03
2019-05-03T23:04:14.699Z,-21322.16
2019-05-03T23:06:46.626Z,-21308.46
2019-05-03T23:09:15.671Z,-21301.68
2019-05-03T23:11:45.041Z,-21307.75
2019-05-03T23:14:15.086Z,-21316.37
2019-05-03T23:16:44.859Z,-21311.71
2019-05-03T23:19:14.889Z,-21312.69
2019-05-03T23:21:50.820Z,-21320.32
2019-05-03T23:24:20.051Z,-21317.36
2019-05-03T23:26:48.338Z,-21305.21
2019-05-03T23:29:16.605Z,-21310.57
2019-05-03T23:31:44.922Z,-21316.50
2019-05-03T23:34:13.226Z,-21321.59
2019-05-03T23:36:41.601Z,-21324.98
2019-05-03T23:39:09.881Z,-21316.64
2019-05-03T23:41:38.158Z,-21318.77
2019-05-03T23:44:06.502Z,-21335.41
2019-05-03T23:46:39.460Z,-21346.70
2019-05-03T23:49:07.752Z,-21332.31
2019-05-03T23:51:50.004Z,-21331.89
2019-05-03T23:54:18.523Z,-21344.15
2019-05-03T23:57:00.762Z,-21349.66
2019-05-03T23:59:37.712Z,-21346.13
